West Muncie, Indiana
Current Conditions -  °F | °C
As of 2:53 AM on Tuesday 21 Oct 2014 (Local Time) from KMIE Reporting Station
Overcast Overcast  
Wind Chill: 46°   Ceiling: 5000
Heat Index: 49°   Visibility: 10mi
Dew Point: 46°   Wind: 7mph
Humidity: 90%   Direction: 310°NW
Pressure: 29.95"   Gusts: NA
Location:  40.2137°N, 85.5395°W
Report Text: KMIE 210653Z AUTO 31006KT 10SM OVC050 09/08 A2995 RMK AO2 SLP137 T00940078
Loading
Personal Weather Stations






























Interactive Weather Map
Tropical Storm Tracking
New forecast layout! Learn more

10-Day Weather Forecast

Advertisements
Track Severe Weather on mobile